Time;durP1;ratioP1;P1;durP2;ratioP2;P2;SDS_P1;SDS_P2;PMS_P1;PMS_P2;Temp;Humidity;BMP_temperature;BMP_pressure;BME280_temperature;BME280_humidity;BME280_pressure;Samples;Min_cycle;Max_cycle;Signal;HPM_P1;HPM_P2
2023/09/18 00:02:01;;;;;;;11.17;7.70;;;;;;;;;;777111;181;920492;-66
2023/09/18 00:04:27;;;;;;;8.77;7.33;;;;;;;;;;769901;178;918541;-66
2023/09/18 00:06:52;;;;;;;7.50;6.70;;;;;;;;;;777296;180;881170;-60
2023/09/18 00:09:19;;;;;;;14.80;6.80;;;;;;;;;;778113;180;919909;-66
2023/09/18 00:11:44;;;;;;;11.60;7.60;;;;;;;;;;783344;180;917864;-60
2023/09/18 00:14:10;;;;;;;9.00;7.20;;;;;;;;;;772012;181;919377;-60
2023/09/18 00:16:36;;;;;;;19.07;7.60;;;;;;;;;;775557;179;919415;-60
2023/09/18 00:19:02;;;;;;;11.67;7.47;;;;;;;;;;773984;181;898211;-60
2023/09/18 00:21:30;;;;;;;17.97;7.43;;;;;;;;;;770864;180;919089;-59
2023/09/18 00:23:54;;;;;;;13.45;8.15;;;;;;;;;;776065;177;918835;-60
2023/09/18 00:26:19;;;;;;;10.50;7.13;;;;;;;;;;779346;180;917941;-67
2023/09/18 00:28:45;;;;;;;12.70;7.57;;;;;;;;;;778631;180;816028;-62
2023/09/18 00:31:11;;;;;;;10.60;7.47;;;;;;;;;;776652;178;918824;-60
2023/09/18 00:33:38;;;;;;;13.40;7.33;;;;;;;;;;776400;180;919348;-60
2023/09/18 00:36:03;;;;;;;9.40;7.63;;;;;;;;;;776556;179;918763;-67
2023/09/18 00:38:29;;;;;;;13.50;6.93;;;;;;;;;;775693;180;913753;-61
2023/09/18 00:40:55;;;;;;;11.03;6.60;;;;;;;;;;770916;181;919008;-67
2023/09/18 00:43:21;;;;;;;14.70;7.33;;;;;;;;;;773329;181;917912;-61
2023/09/18 00:45:47;;;;;;;9.00;7.20;;;;;;;;;;772955;180;922075;-70
2023/09/18 00:48:12;;;;;;;11.38;7.53;;;;;;;;;;771975;179;921636;-67
2023/09/18 00:50:39;;;;;;;10.90;6.80;;;;;;;;;;778440;178;920029;-61
2023/09/18 00:53:04;;;;;;;12.80;7.53;;;;;;;;;;769889;182;919741;-61
2023/09/18 00:55:30;;;;;;;11.13;6.87;;;;;;;;;;776824;177;919929;-67
2023/09/18 00:57:56;;;;;;;11.23;7.07;;;;;;;;;;776228;180;914001;-61
2023/09/18 01:00:22;;;;;;;9.90;7.00;;;;;;;;;;773848;178;918176;-61
2023/09/18 01:02:47;;;;;;;16.80;7.83;;;;;;;;;;774349;181;902832;-61
2023/09/18 01:05:16;;;;;;;9.98;7.50;;;;;;;;;;775496;180;922815;-67
2023/09/18 01:07:39;;;;;;;10.67;6.00;;;;;;;;;;770772;180;919098;-68
2023/09/18 01:10:06;;;;;;;12.63;7.30;;;;;;;;;;767926;178;921892;-61
2023/09/18 01:12:33;;;;;;;11.27;7.33;;;;;;;;;;774615;180;919420;-68
2023/09/18 01:15:00;;;;;;;11.50;7.70;;;;;;;;;;773814;181;918880;-68
2023/09/18 01:17:26;;;;;;;13.80;7.13;;;;;;;;;;775384;179;919346;-67
2023/09/18 01:19:51;;;;;;;8.33;6.70;;;;;;;;;;774836;178;917356;-61
2023/09/18 01:22:17;;;;;;;11.00;7.50;;;;;;;;;;782962;177;919468;-61
2023/09/18 01:24:44;;;;;;;11.37;7.80;;;;;;;;;;772445;178;909829;-68
2023/09/18 01:27:10;;;;;;;8.33;7.40;;;;;;;;;;769861;180;917826;-67
2023/09/18 01:29:36;;;;;;;14.77;8.60;;;;;;;;;;775975;177;819377;-61
2023/09/18 01:32:02;;;;;;;10.63;7.20;;;;;;;;;;763191;181;917011;-68
2023/09/18 01:34:28;;;;;;;7.60;6.40;;;;;;;;;;764837;178;916010;-61
2023/09/18 01:36:54;;;;;;;11.97;7.33;;;;;;;;;;772548;180;920498;-67
2023/09/18 01:39:20;;;;;;;12.47;8.03;;;;;;;;;;779402;180;915699;-62
2023/09/18 01:41:46;;;;;;;10.90;8.20;;;;;;;;;;772653;177;919093;-61
2023/09/18 01:44:12;;;;;;;10.80;7.33;;;;;;;;;;774310;178;924282;-67
2023/09/18 01:46:37;;;;;;;14.03;8.03;;;;;;;;;;782113;178;920769;-67
2023/09/18 01:49:03;;;;;;;11.20;8.27;;;;;;;;;;773844;180;918753;-62
2023/09/18 01:51:30;;;;;;;19.20;8.07;;;;;;;;;;770142;180;823554;-68
2023/09/18 01:53:56;;;;;;;11.03;7.93;;;;;;;;;;772327;178;919095;-67
2023/09/18 01:56:22;;;;;;;12.07;8.13;;;;;;;;;;773061;180;919879;-68
2023/09/18 01:58:47;;;;;;;17.53;8.27;;;;;;;;;;774479;180;817211;-61
2023/09/18 02:01:14;;;;;;;15.57;8.05;;;;;;;;;;771187;180;916467;-67
2023/09/18 02:03:41;;;;;;;9.33;7.07;;;;;;;;;;776958;178;919817;-60
2023/09/18 02:06:05;;;;;;;10.50;7.97;;;;;;;;;;773745;177;917520;-68
2023/09/18 02:08:31;;;;;;;14.20;7.70;;;;;;;;;;770482;181;920390;-61
2023/09/18 02:10:57;;;;;;;11.17;7.63;;;;;;;;;;778267;180;819457;-66
2023/09/18 02:13:23;;;;;;;12.63;7.10;;;;;;;;;;772868;180;918929;-69
2023/09/18 02:15:48;;;;;;;9.37;7.30;;;;;;;;;;774509;180;921273;-67
2023/09/18 02:18:15;;;;;;;11.17;9.10;;;;;;;;;;774268;181;920955;-67
2023/09/18 02:20:40;;;;;;;19.20;7.40;;;;;;;;;;775552;178;920064;-61
2023/09/18 02:23:06;;;;;;;11.60;8.27;;;;;;;;;;774992;180;816161;-68
2023/09/18 02:25:32;;;;;;;11.73;9.00;;;;;;;;;;774849;180;918421;-68
2023/09/18 02:27:58;;;;;;;14.00;9.40;;;;;;;;;;779977;178;817541;-67
2023/09/18 02:30:24;;;;;;;13.95;7.55;;;;;;;;;;774603;180;817031;-67
2023/09/18 02:32:50;;;;;;;10.13;7.17;;;;;;;;;;774361;180;919245;-62
2023/09/18 02:35:15;;;;;;;20.47;8.80;;;;;;;;;;780165;180;933834;-62
2023/09/18 02:37:41;;;;;;;13.73;8.17;;;;;;;;;;774788;181;915147;-68
2023/09/18 02:40:08;;;;;;;10.38;7.75;;;;;;;;;;772328;181;919501;-68
2023/09/18 02:42:33;;;;;;;16.17;7.10;;;;;;;;;;780552;178;919120;-62
2023/09/18 02:44:59;;;;;;;18.17;7.80;;;;;;;;;;768977;181;921003;-70
2023/09/18 02:47:25;;;;;;;9.83;7.33;;;;;;;;;;774357;180;919189;-70
2023/09/18 02:49:51;;;;;;;13.30;7.47;;;;;;;;;;769508;180;819313;-68
2023/09/18 02:52:17;;;;;;;12.03;9.13;;;;;;;;;;771594;180;919579;-61
2023/09/18 02:54:43;;;;;;;10.20;7.53;;;;;;;;;;769739;180;918886;-62
2023/09/18 02:57:08;;;;;;;13.17;8.33;;;;;;;;;;775043;180;922618;-69
2023/09/18 02:59:34;;;;;;;12.27;7.77;;;;;;;;;;779273;180;918176;-68
2023/09/18 03:02:00;;;;;;;12.90;8.33;;;;;;;;;;774568;177;818416;-63
2023/09/18 03:04:26;;;;;;;9.97;7.80;;;;;;;;;;771637;181;918273;-62
2023/09/18 03:06:52;;;;;;;18.47;8.27;;;;;;;;;;774938;181;918688;-69
2023/09/18 03:09:18;;;;;;;19.17;8.90;;;;;;;;;;759142;182;918443;-69
2023/09/18 03:11:43;;;;;;;9.50;8.17;;;;;;;;;;772091;181;919235;-62
2023/09/18 03:14:09;;;;;;;20.83;8.07;;;;;;;;;;778338;178;925342;-64
2023/09/18 03:16:35;;;;;;;13.23;7.33;;;;;;;;;;769273;178;919185;-62
2023/09/18 03:19:01;;;;;;;12.02;7.55;;;;;;;;;;775497;180;920855;-68
2023/09/18 03:21:27;;;;;;;12.60;7.60;;;;;;;;;;772078;180;922037;-62
2023/09/18 03:23:53;;;;;;;11.60;8.50;;;;;;;;;;778774;178;715853;-69
2023/09/18 03:26:19;;;;;;;10.70;7.80;;;;;;;;;;772870;180;918469;-68
2023/09/18 03:28:44;;;;;;;11.67;8.57;;;;;;;;;;775844;177;917962;-62
2023/09/18 03:31:10;;;;;;;13.10;7.93;;;;;;;;;;772866;180;919299;-68
2023/09/18 03:33:36;;;;;;;14.10;8.23;;;;;;;;;;769906;180;919587;-68
2023/09/18 03:36:04;;;;;;;8.60;7.50;;;;;;;;;;773827;180;918584;-68
2023/09/18 03:38:29;;;;;;;11.00;8.50;;;;;;;;;;781045;180;816795;-61
2023/09/18 03:40:54;;;;;;;16.90;9.57;;;;;;;;;;773307;179;918617;-62
2023/09/18 03:43:19;;;;;;;13.07;9.27;;;;;;;;;;775655;180;918244;-61
2023/09/18 03:45:47;;;;;;;10.75;8.40;;;;;;;;;;781048;180;918750;-63
2023/09/18 03:48:12;;;;;;;11.47;8.17;;;;;;;;;;778638;180;918444;-64
2023/09/18 03:50:38;;;;;;;17.13;8.97;;;;;;;;;;772866;177;917344;-62
2023/09/18 03:53:04;;;;;;;13.23;8.70;;;;;;;;;;766633;179;916098;-69
2023/09/18 03:55:30;;;;;;;20.90;8.73;;;;;;;;;;757720;186;816884;-61
2023/09/18 03:57:55;;;;;;;14.30;8.60;;;;;;;;;;751622;184;919765;-62
2023/09/18 04:00:21;;;;;;;12.90;9.07;;;;;;;;;;763152;177;918451;-69
2023/09/18 04:02:47;;;;;;;14.33;8.73;;;;;;;;;;778312;180;920932;-69
2023/09/18 04:05:13;;;;;;;16.37;9.23;;;;;;;;;;770424;180;916702;-61
2023/09/18 04:07:39;;;;;;;9.93;8.40;;;;;;;;;;769635;180;915972;-69
2023/09/18 04:10:05;;;;;;;11.17;8.23;;;;;;;;;;778076;178;914795;-62
2023/09/18 04:12:31;;;;;;;14.33;8.53;;;;;;;;;;776692;179;817530;-69
2023/09/18 04:14:56;;;;;;;16.23;8.60;;;;;;;;;;774200;180;919884;-69
2023/09/18 04:17:22;;;;;;;13.67;8.23;;;;;;;;;;774962;177;912153;-69
2023/09/18 04:19:48;;;;;;;13.87;8.20;;;;;;;;;;778419;181;918674;-62
2023/09/18 04:22:14;;;;;;;14.37;9.20;;;;;;;;;;773123;180;919294;-61
2023/09/18 04:24:40;;;;;;;9.87;8.40;;;;;;;;;;773401;179;915642;-69
2023/09/18 04:27:06;;;;;;;11.13;8.07;;;;;;;;;;770794;179;630031;-69
2023/09/18 04:29:32;;;;;;;13.90;9.50;;;;;;;;;;772298;180;630257;-71
2023/09/18 04:31:57;;;;;;;15.70;8.90;;;;;;;;;;774679;180;634617;-62
2023/09/18 04:34:23;;;;;;;21.00;9.40;;;;;;;;;;775245;180;919057;-69
2023/09/18 04:36:49;;;;;;;13.63;8.90;;;;;;;;;;778517;178;806671;-63
2023/09/18 04:39:15;;;;;;;15.73;8.63;;;;;;;;;;780206;178;637411;-62
2023/09/18 04:41:41;;;;;;;12.40;9.07;;;;;;;;;;778126;180;812915;-69
2023/09/18 04:44:07;;;;;;;15.43;9.60;;;;;;;;;;772907;181;619069;-63
2023/09/18 04:46:33;;;;;;;15.70;8.68;;;;;;;;;;774831;181;633400;-70
2023/09/18 04:48:59;;;;;;;14.90;9.70;;;;;;;;;;777169;180;614913;-63
2023/09/18 04:51:25;;;;;;;11.40;9.40;;;;;;;;;;780479;180;632849;-70
2023/09/18 04:53:51;;;;;;;17.17;10.40;;;;;;;;;;775106;176;642811;-69
2023/09/18 04:56:16;;;;;;;16.23;9.43;;;;;;;;;;768271;181;627721;-63
2023/09/18 04:58:42;;;;;;;12.40;9.13;;;;;;;;;;783256;180;810885;-62
2023/09/18 05:01:08;;;;;;;13.73;10.47;;;;;;;;;;769155;181;919695;-66
2023/09/18 05:03:34;;;;;;;11.73;9.43;;;;;;;;;;777278;180;918151;-62
2023/09/18 05:06:00;;;;;;;16.30;10.70;;;;;;;;;;781222;180;633509;-69
2023/09/18 05:08:25;;;;;;;14.83;10.37;;;;;;;;;;776401;180;914811;-69
2023/09/18 05:10:51;;;;;;;18.93;10.63;;;;;;;;;;771060;180;918508;-70
2023/09/18 05:13:17;;;;;;;14.17;10.93;;;;;;;;;;773667;180;925873;-69
2023/09/18 05:15:43;;;;;;;17.37;11.82;;;;;;;;;;773469;181;921090;-62
2023/09/18 05:18:09;;;;;;;13.30;10.50;;;;;;;;;;768341;181;920315;-69
2023/09/18 05:20:35;;;;;;;18.90;10.83;;;;;;;;;;772267;181;916333;-69
2023/09/18 05:23:02;;;;;;;17.48;11.15;;;;;;;;;;777652;180;818430;-69
2023/09/18 05:25:27;;;;;;;13.77;11.93;;;;;;;;;;773314;177;913951;-62
2023/09/18 05:27:56;;;;;;;17.27;11.90;;;;;;;;;;771150;180;919188;-62
2023/09/18 05:30:21;;;;;;;16.07;11.23;;;;;;;;;;764648;181;918348;-70
2023/09/18 05:32:47;;;;;;;14.17;12.03;;;;;;;;;;770698;181;817661;-62
2023/09/18 05:35:13;;;;;;;23.20;12.13;;;;;;;;;;772379;180;877636;-70
2023/09/18 05:37:39;;;;;;;15.57;11.87;;;;;;;;;;766559;179;819780;-63
2023/09/18 05:40:05;;;;;;;17.83;12.20;;;;;;;;;;754573;182;919372;-69
2023/09/18 05:42:31;;;;;;;15.87;11.77;;;;;;;;;;775039;178;908372;-69
2023/09/18 05:44:57;;;;;;;17.07;11.97;;;;;;;;;;772693;180;917228;-69
2023/09/18 05:47:23;;;;;;;18.53;14.10;;;;;;;;;;776158;177;918092;-69
2023/09/18 05:49:49;;;;;;;19.05;15.00;;;;;;;;;;763140;177;930352;-62
2023/09/18 05:52:14;;;;;;;22.10;15.33;;;;;;;;;;768941;180;919533;-69
2023/09/18 05:54:40;;;;;;;21.13;16.50;;;;;;;;;;774237;178;922072;-62
2023/09/18 05:57:07;;;;;;;17.73;13.03;;;;;;;;;;770761;181;920965;-68
2023/09/18 05:59:32;;;;;;;21.60;17.10;;;;;;;;;;771268;180;920255;-62
2023/09/18 06:01:58;;;;;;;29.63;19.23;;;;;;;;;;771212;178;916731;-61
2023/09/18 06:04:24;;;;;;;26.07;18.10;;;;;;;;;;772912;180;918620;-70
2023/09/18 06:06:51;;;;;;;23.03;19.30;;;;;;;;;;766585;178;918250;-69
2023/09/18 06:09:16;;;;;;;23.77;19.10;;;;;;;;;;774680;179;920826;-67
2023/09/18 06:11:41;;;;;;;30.90;19.30;;;;;;;;;;779095;180;918904;-68
2023/09/18 06:14:07;;;;;;;26.33;20.70;;;;;;;;;;772605;180;916842;-61
2023/09/18 06:16:33;;;;;;;28.60;19.73;;;;;;;;;;769302;181;919834;-61
2023/09/18 06:19:00;;;;;;;29.20;19.97;;;;;;;;;;778268;180;919279;-67
2023/09/18 06:21:25;;;;;;;22.40;16.67;;;;;;;;;;772963;178;898583;-59
2023/09/18 06:23:51;;;;;;;23.60;18.90;;;;;;;;;;773119;180;913952;-60
2023/09/18 06:26:17;;;;;;;20.23;17.70;;;;;;;;;;775163;178;917531;-66
2023/09/18 06:28:42;;;;;;;18.93;16.93;;;;;;;;;;773545;181;817124;-60
2023/09/18 06:31:08;;;;;;;18.73;15.80;;;;;;;;;;771585;180;894884;-65
2023/09/18 06:33:34;;;;;;;21.50;16.37;;;;;;;;;;773087;181;919159;-62
2023/09/18 06:36:00;;;;;;;22.73;15.87;;;;;;;;;;776867;180;893696;-66
2023/09/18 06:38:26;;;;;;;20.73;15.00;;;;;;;;;;770672;180;921433;-66
2023/09/18 06:40:52;;;;;;;17.60;15.57;;;;;;;;;;772599;179;877140;-65
2023/09/18 06:43:18;;;;;;;16.53;14.43;;;;;;;;;;765195;181;913176;-67
2023/09/18 06:45:44;;;;;;;18.90;15.67;;;;;;;;;;772416;180;893130;-60
2023/09/18 06:48:10;;;;;;;19.50;14.60;;;;;;;;;;769046;180;919855;-61
2023/09/18 06:50:36;;;;;;;16.80;14.50;;;;;;;;;;778817;178;916629;-58
2023/09/18 06:53:01;;;;;;;19.70;13.80;;;;;;;;;;767743;177;912797;-69
2023/09/18 06:55:27;;;;;;;17.17;14.93;;;;;;;;;;760917;181;842171;-65
2023/09/18 06:57:53;;;;;;;16.70;15.00;;;;;;;;;;773316;178;920843;-65
2023/09/18 07:00:20;;;;;;;19.57;15.67;;;;;;;;;;770588;181;918737;-67
2023/09/18 07:02:45;;;;;;;16.27;13.10;;;;;;;;;;772102;178;920582;-65
2023/09/18 07:05:10;;;;;;;16.70;13.70;;;;;;;;;;774402;178;862968;-60
2023/09/18 07:07:36;;;;;;;15.53;13.87;;;;;;;;;;776976;179;918999;-65
2023/09/18 07:10:02;;;;;;;15.47;13.50;;;;;;;;;;772949;180;884777;-65
2023/09/18 07:12:28;;;;;;;17.35;15.00;;;;;;;;;;772636;179;919556;-66
2023/09/18 07:14:54;;;;;;;16.30;14.60;;;;;;;;;;776471;179;920738;-66
2023/09/18 07:17:20;;;;;;;20.90;13.98;;;;;;;;;;774828;178;905153;-66
2023/09/18 07:19:46;;;;;;;15.80;13.67;;;;;;;;;;769762;177;918563;-60
2023/09/18 07:22:11;;;;;;;17.77;13.70;;;;;;;;;;778834;177;904484;-65
2023/09/18 07:24:40;;;;;;;16.37;14.13;;;;;;;;;;778213;177;793169;-60
2023/09/18 07:27:03;;;;;;;15.67;14.10;;;;;;;;;;770464;178;921233;-65
2023/09/18 07:29:29;;;;;;;16.77;14.10;;;;;;;;;;771263;180;917980;-65
2023/09/18 07:31:55;;;;;;;17.03;14.97;;;;;;;;;;778109;180;848923;-65
2023/09/18 07:34:21;;;;;;;18.03;13.80;;;;;;;;;;772352;180;918321;-60
2023/09/18 07:36:47;;;;;;;19.63;15.77;;;;;;;;;;762459;183;899538;-59
2023/09/18 07:39:14;;;;;;;23.70;14.90;;;;;;;;;;775788;178;939705;-59
2023/09/18 07:41:39;;;;;;;15.23;13.30;;;;;;;;;;774472;177;882355;-65
2023/09/18 07:44:04;;;;;;;14.47;12.57;;;;;;;;;;773114;180;919129;-60
2023/09/18 07:46:30;;;;;;;14.17;12.70;;;;;;;;;;778294;177;916758;-61
2023/09/18 07:48:56;;;;;;;15.63;13.67;;;;;;;;;;769830;180;917968;-60
2023/09/18 07:51:23;;;;;;;14.68;13.13;;;;;;;;;;770595;178;1020763;-65
2023/09/18 07:53:48;;;;;;;16.87;13.23;;;;;;;;;;774791;178;922710;-61
2023/09/18 07:56:14;;;;;;;15.23;13.63;;;;;;;;;;775088;177;922935;-65
2023/09/18 07:58:40;;;;;;;14.77;13.23;;;;;;;;;;770038;177;926197;-65
2023/09/18 08:01:06;;;;;;;17.03;15.23;;;;;;;;;;767111;180;919621;-65
2023/09/18 08:03:32;;;;;;;15.20;13.60;;;;;;;;;;776292;180;920056;-66
2023/09/18 08:05:58;;;;;;;15.37;12.70;;;;;;;;;;770804;180;919496;-65
2023/09/18 08:08:24;;;;;;;17.20;14.85;;;;;;;;;;772363;180;919072;-65
2023/09/18 08:10:50;;;;;;;15.27;13.67;;;;;;;;;;772436;180;918173;-60
2023/09/18 08:13:16;;;;;;;16.67;12.10;;;;;;;;;;761531;181;911738;-61
2023/09/18 08:15:42;;;;;;;15.77;12.70;;;;;;;;;;770885;180;924381;-59
2023/09/18 08:18:08;;;;;;;16.13;11.97;;;;;;;;;;775829;181;864425;-60
2023/09/18 08:20:36;;;;;;;16.67;13.77;;;;;;;;;;772939;180;911450;-60
2023/09/18 08:23:01;;;;;;;16.13;11.90;;;;;;;;;;777743;177;634261;-65
2023/09/18 08:25:26;;;;;;;13.33;11.93;;;;;;;;;;775482;179;912298;-60
2023/09/18 08:27:52;;;;;;;14.80;13.03;;;;;;;;;;777350;179;614660;-66
2023/09/18 08:30:20;;;;;;;15.30;12.90;;;;;;;;;;778040;181;616818;-66
2023/09/18 08:32:44;;;;;;;14.27;12.77;;;;;;;;;;776794;178;661817;-60
2023/09/18 08:35:09;;;;;;;14.23;12.00;;;;;;;;;;774649;180;631911;-66
2023/09/18 08:37:35;;;;;;;15.30;13.13;;;;;;;;;;775767;179;815325;-65
2023/09/18 08:40:09;;;;;;;14.50;13.00;;;;;;;;;;769353;180;893083;-60
2023/09/18 08:42:27;;;;;;;17.40;13.83;;;;;;;;;;778675;177;829479;-60
2023/09/18 08:44:53;;;;;;;14.13;12.53;;;;;;;;;;759485;181;905492;-66
2023/09/18 08:47:19;;;;;;;16.13;14.07;;;;;;;;;;767295;181;923318;-67
2023/09/18 08:49:45;;;;;;;16.17;12.90;;;;;;;;;;773208;180;918996;-66
2023/09/18 08:52:11;;;;;;;22.37;13.87;;;;;;;;;;762903;184;919292;-66
2023/09/18 08:54:37;;;;;;;16.53;13.10;;;;;;;;;;756761;184;920448;-59
2023/09/18 08:57:07;;;;;;;14.27;12.57;;;;;;;;;;755443;184;919254;-61
2023/09/18 08:59:29;;;;;;;16.87;13.67;;;;;;;;;;760892;184;920856;-66
2023/09/18 09:01:55;;;;;;;14.67;12.50;;;;;;;;;;762299;184;921076;-67
2023/09/18 09:04:20;;;;;;;15.07;13.57;;;;;;;;;;774057;178;1021142;-67
2023/09/18 09:06:46;;;;;;;18.67;13.30;;;;;;;;;;774603;180;820614;-65
2023/09/18 09:09:12;;;;;;;13.00;11.70;;;;;;;;;;767510;180;918051;-65
2023/09/18 09:11:38;;;;;;;17.50;14.50;;;;;;;;;;767764;181;919917;-65
2023/09/18 09:14:11;;;;;;;17.30;12.87;;;;;;;;;;775763;181;918907;-65
2023/09/18 09:16:35;;;;;;;15.70;12.63;;;;;;;;;;775136;179;917985;-58
2023/09/18 09:19:00;;;;;;;14.70;12.93;;;;;;;;;;770045;181;918843;-59
2023/09/18 09:21:26;;;;;;;12.83;11.53;;;;;;;;;;770627;179;919308;-59
2023/09/18 09:23:52;;;;;;;13.62;12.18;;;;;;;;;;777038;181;817899;-66
2023/09/18 09:26:18;;;;;;;19.50;14.37;;;;;;;;;;767067;180;919024;-66
2023/09/18 09:28:44;;;;;;;15.68;12.43;;;;;;;;;;773210;181;828587;-59
2023/09/18 09:31:10;;;;;;;14.70;13.10;;;;;;;;;;778934;178;865768;-58
2023/09/18 09:33:38;;;;;;;14.47;12.23;;;;;;;;;;773814;180;915978;-67
2023/09/18 09:36:02;;;;;;;15.37;12.90;;;;;;;;;;768180;180;919910;-66
2023/09/18 09:38:28;;;;;;;16.30;13.60;;;;;;;;;;777163;180;919948;-59
2023/09/18 09:40:54;;;;;;;16.00;14.30;;;;;;;;;;776332;177;906283;-65
2023/09/18 09:43:19;;;;;;;14.90;13.30;;;;;;;;;;774020;177;919022;-65
2023/09/18 09:45:45;;;;;;;16.43;13.10;;;;;;;;;;765188;179;919611;-60
2023/09/18 09:48:11;;;;;;;16.83;13.40;;;;;;;;;;780204;177;919968;-58
2023/09/18 09:50:38;;;;;;;14.33;12.83;;;;;;;;;;763156;181;919276;-59
2023/09/18 09:53:04;;;;;;;17.00;12.50;;;;;;;;;;768446;181;916522;-65
2023/09/18 09:55:30;;;;;;;14.83;12.83;;;;;;;;;;775298;180;926957;-59
2023/09/18 09:57:59;;;;;;;15.60;12.40;;;;;;;;;;767943;178;842664;-67
2023/09/18 10:00:26;;;;;;;13.10;11.80;;;;;;;;;;768913;180;915264;-66
2023/09/18 10:02:51;;;;;;;15.10;13.50;;;;;;;;;;767992;180;916310;-59
2023/09/18 10:05:17;;;;;;;16.20;14.53;;;;;;;;;;779129;181;815208;-59
2023/09/18 10:07:43;;;;;;;16.67;11.80;;;;;;;;;;770503;179;925131;-58
2023/09/18 10:10:08;;;;;;;16.20;14.00;;;;;;;;;;770348;180;919416;-64
2023/09/18 10:12:34;;;;;;;15.53;13.77;;;;;;;;;;773978;178;919236;-66
2023/09/18 10:15:00;;;;;;;15.27;13.67;;;;;;;;;;773508;179;922520;-66
2023/09/18 10:17:26;;;;;;;14.93;13.07;;;;;;;;;;769969;179;922126;-65
2023/09/18 10:19:52;;;;;;;14.80;13.30;;;;;;;;;;769006;182;865825;-59
2023/09/18 10:22:20;;;;;;;14.20;12.87;;;;;;;;;;762329;183;848201;-65
2023/09/18 10:24:45;;;;;;;14.47;12.87;;;;;;;;;;764351;181;917682;-59
2023/09/18 10:27:11;;;;;;;14.93;13.17;;;;;;;;;;768611;181;915521;-65
2023/09/18 10:29:36;;;;;;;17.20;14.17;;;;;;;;;;768642;180;854391;-65
2023/09/18 10:32:02;;;;;;;13.17;11.80;;;;;;;;;;770765;181;919612;-59
2023/09/18 10:34:30;;;;;;;15.20;13.60;;;;;;;;;;768077;181;933467;-59
2023/09/18 10:36:54;;;;;;;15.33;13.40;;;;;;;;;;774820;181;918339;-59
2023/09/18 10:39:23;;;;;;;17.00;14.63;;;;;;;;;;768521;180;919550;-61
2023/09/18 10:41:47;;;;;;;15.30;13.70;;;;;;;;;;772038;181;918815;-66
2023/09/18 10:44:13;;;;;;;15.40;12.63;;;;;;;;;;778170;179;715202;-67
2023/09/18 10:46:39;;;;;;;13.30;11.90;;;;;;;;;;756111;181;911257;-58
2023/09/18 10:49:05;;;;;;;14.33;12.83;;;;;;;;;;765686;180;921658;-67
2023/09/18 10:51:31;;;;;;;16.80;12.83;;;;;;;;;;777134;180;818161;-67
2023/09/18 10:53:57;;;;;;;16.40;13.97;;;;;;;;;;772099;177;919593;-65
2023/09/18 10:56:22;;;;;;;15.73;13.30;;;;;;;;;;769311;180;920228;-59
2023/09/18 10:58:58;;;;;;;14.93;13.43;;;;;;;;;;772945;180;821906;-59
2023/09/18 11:01:23;;;;;;;13.57;11.60;;;;;;;;;;776987;177;918792;-69
2023/09/18 11:03:49;;;;;;;18.03;13.50;;;;;;;;;;771543;177;927072;-60
2023/09/18 11:06:17;;;;;;;15.10;12.00;;;;;;;;;;765372;180;919272;-67
2023/09/18 11:08:43;;;;;;;14.60;12.13;;;;;;;;;;774355;179;899832;-61
2023/09/18 11:11:11;;;;;;;14.43;12.93;;;;;;;;;;779527;180;913469;-61
2023/09/18 11:13:35;;;;;;;14.17;12.77;;;;;;;;;;769877;181;922911;-60
2023/09/18 11:16:03;;;;;;;12.57;11.37;;;;;;;;;;773637;177;918327;-60
2023/09/18 11:18:28;;;;;;;15.10;12.83;;;;;;;;;;779712;178;917791;-61
2023/09/18 11:21:00;;;;;;;13.63;12.20;;;;;;;;;;767989;181;919411;-60
2023/09/18 11:23:26;;;;;;;15.57;12.67;;;;;;;;;;771772;181;920379;-68
2023/09/18 11:25:53;;;;;;;16.90;12.40;;;;;;;;;;770661;178;918222;-59
2023/09/18 11:28:23;;;;;;;13.23;11.93;;;;;;;;;;778625;180;917501;-68
2023/09/18 11:30:50;;;;;;;12.73;11.43;;;;;;;;;;772157;180;919304;-59
2023/09/18 11:33:16;;;;;;;13.30;11.97;;;;;;;;;;766992;181;918032;-59
2023/09/18 11:35:42;;;;;;;13.97;12.37;;;;;;;;;;769430;179;919564;-60
2023/09/18 11:38:08;;;;;;;13.67;11.37;;;;;;;;;;767676;181;924447;-67
2023/09/18 11:40:38;;;;;;;13.10;11.27;;;;;;;;;;766804;178;921278;-60
2023/09/18 11:43:06;;;;;;;12.53;11.20;;;;;;;;;;771744;180;919090;-66
2023/09/18 11:45:32;;;;;;;14.20;10.63;;;;;;;;;;773400;180;816246;-59
2023/09/18 11:47:58;;;;;;;12.73;11.43;;;;;;;;;;771722;178;918812;-58
2023/09/18 11:50:24;;;;;;;16.70;12.30;;;;;;;;;;771342;180;919502;-59
2023/09/18 11:52:50;;;;;;;13.25;11.45;;;;;;;;;;773362;180;900154;-66
2023/09/18 11:55:16;;;;;;;15.30;10.07;;;;;;;;;;765807;181;919446;-69
2023/09/18 11:57:43;;;;;;;12.50;11.23;;;;;;;;;;772347;178;914422;-68
2023/09/18 12:00:12;;;;;;;12.60;11.40;;;;;;;;;;770430;181;919015;-68
2023/09/18 12:02:36;;;;;;;12.33;11.13;;;;;;;;;;780168;180;814998;-68
2023/09/18 12:05:05;;;;;;;13.93;12.43;;;;;;;;;;769600;181;918854;-59
2023/09/18 12:07:31;;;;;;;11.80;10.60;;;;;;;;;;770772;179;918817;-68
2023/09/18 12:09:57;;;;;;;12.57;11.37;;;;;;;;;;769869;182;816739;-67
2023/09/18 12:12:23;;;;;;;14.13;12.63;;;;;;;;;;774380;180;920104;-61
2023/09/18 12:14:49;;;;;;;15.13;12.63;;;;;;;;;;768154;180;919827;-67
2023/09/18 12:17:15;;;;;;;14.07;12.57;;;;;;;;;;774648;177;919120;-59
2023/09/18 12:19:40;;;;;;;12.70;11.40;;;;;;;;;;779297;180;918435;-67
2023/09/18 12:22:06;;;;;;;14.37;11.80;;;;;;;;;;773835;178;898066;-68
2023/09/18 12:24:32;;;;;;;17.57;12.73;;;;;;;;;;768825;180;814124;-69
2023/09/18 12:26:58;;;;;;;12.03;10.83;;;;;;;;;;778569;180;820480;-59
2023/09/18 12:29:24;;;;;;;12.27;11.07;;;;;;;;;;774968;180;925744;-59
2023/09/18 12:31:52;;;;;;;13.90;11.73;;;;;;;;;;776483;180;818340;-60
2023/09/18 12:34:21;;;;;;;15.03;12.97;;;;;;;;;;778646;180;918998;-68
2023/09/18 12:36:47;;;;;;;13.60;11.53;;;;;;;;;;774581;181;841161;-68
2023/09/18 12:39:10;;;;;;;13.73;11.10;;;;;;;;;;775742;179;915210;-69
2023/09/18 12:41:36;;;;;;;12.80;11.50;;;;;;;;;;771712;178;918383;-69
2023/09/18 12:44:03;;;;;;;13.50;11.67;;;;;;;;;;773918;181;920025;-67
2023/09/18 12:46:28;;;;;;;11.87;10.77;;;;;;;;;;773565;178;919745;-69
2023/09/18 12:48:54;;;;;;;12.23;10.50;;;;;;;;;;773393;177;932162;-66
2023/09/18 12:51:22;;;;;;;12.23;11.03;;;;;;;;;;773810;181;918503;-60
2023/09/18 12:53:45;;;;;;;14.67;11.20;;;;;;;;;;769072;180;916602;-68
2023/09/18 12:56:12;;;;;;;12.37;11.07;;;;;;;;;;770718;181;918983;-68
2023/09/18 12:58:37;;;;;;;11.60;10.40;;;;;;;;;;779672;177;914615;-67
2023/09/18 13:01:07;;;;;;;13.10;11.70;;;;;;;;;;769747;181;918640;-59
2023/09/18 13:03:30;;;;;;;12.67;11.37;;;;;;;;;;767631;178;917712;-59
2023/09/18 13:05:55;;;;;;;11.83;10.63;;;;;;;;;;766561;181;918232;-59
2023/09/18 13:08:21;;;;;;;12.83;11.13;;;;;;;;;;779218;180;858343;-68
2023/09/18 13:10:47;;;;;;;11.50;9.87;;;;;;;;;;773732;181;927644;-59
2023/09/18 13:13:20;;;;;;;11.90;10.33;;;;;;;;;;775823;180;918645;-66
2023/09/18 13:15:47;;;;;;;18.10;9.93;;;;;;;;;;782596;176;919631;-58
2023/09/18 13:18:11;;;;;;;16.33;11.67;;;;;;;;;;771911;180;919505;-58
2023/09/18 13:20:37;;;;;;;16.40;12.17;;;;;;;;;;772636;180;919913;-66
2023/09/18 13:23:04;;;;;;;12.80;11.13;;;;;;;;;;772095;177;909618;-59
2023/09/18 13:25:30;;;;;;;14.17;10.63;;;;;;;;;;774954;181;919204;-59
2023/09/18 13:27:56;;;;;;;13.63;11.97;;;;;;;;;;775135;181;919059;-59
2023/09/18 13:30:22;;;;;;;17.87;10.73;;;;;;;;;;772979;179;919061;-59
2023/09/18 13:32:48;;;;;;;11.90;10.00;;;;;;;;;;780825;180;854972;-66
2023/09/18 13:35:14;;;;;;;17.60;11.80;;;;;;;;;;775245;180;914744;-65
2023/09/18 13:37:40;;;;;;;12.67;11.37;;;;;;;;;;773194;180;919432;-67
2023/09/18 13:40:07;;;;;;;13.63;11.43;;;;;;;;;;780578;178;851510;-58
2023/09/18 13:42:32;;;;;;;13.77;12.27;;;;;;;;;;777862;177;919330;-58
2023/09/18 13:45:00;;;;;;;12.93;10.17;;;;;;;;;;774758;180;915916;-67
2023/09/18 13:47:24;;;;;;;12.30;10.90;;;;;;;;;;756615;184;920461;-59
2023/09/18 13:49:51;;;;;;;14.00;10.80;;;;;;;;;;777268;181;818908;-58
2023/09/18 13:52:16;;;;;;;16.03;10.10;;;;;;;;;;769648;180;919310;-66
2023/09/18 13:54:41;;;;;;;12.87;9.67;;;;;;;;;;772706;180;918793;-66
2023/09/18 13:57:07;;;;;;;10.97;9.87;;;;;;;;;;776777;181;819978;-65
2023/09/18 13:59:33;;;;;;;11.47;10.17;;;;;;;;;;773406;181;855348;-59
2023/09/18 14:01:59;;;;;;;13.63;10.70;;;;;;;;;;771526;178;926390;-58